Time,TemperatureF,DewpointF,PressureIn,WindDirection,WindDirectionDegrees,WindSpeedMPH,WindSpeedGustMPH,Humidity,HourlyPrecipIn,Conditions,Clouds,dailyrainin,SoftwareType,DateUTC
2013-10-23 00:05:00,39.6,34.0,30.07,NW,306,0.0,4.0,79,0.00,,,0.00,weatherlink.com 1.10,2013-10-23 05:05:00,
2013-10-23 00:20:00,39.3,34.0,30.07,WSW,242,0.0,3.0,80,0.00,,,0.00,weatherlink.com 1.10,2013-10-23 05:20:00,
2013-10-23 00:35:00,39.2,34.0,30.07,West,277,0.0,2.0,80,0.00,,,0.00,weatherlink.com 1.10,2013-10-23 05:35:00,
2013-10-23 00:50:00,39.0,33.0,30.08,WNW,296,0.0,3.0,79,0.00,,,0.00,weatherlink.com 1.10,2013-10-23 05:50:00,
2013-10-23 01:05:00,38.6,33.0,30.08,West,259,0.0,1.0,79,0.00,,,0.00,weatherlink.com 1.10,2013-10-23 06:05:00,
2013-10-23 01:20:00,38.3,33.0,30.08,West,274,0.0,0.0,80,0.00,,,0.00,weatherlink.com 1.10,2013-10-23 06:20:00,
2013-10-23 01:35:00,37.2,32.0,30.08,West,274,0.0,0.0,82,0.00,,,0.00,weatherlink.com 1.10,2013-10-23 06:35:00,
2013-10-23 01:51:00,36.6,32.0,30.08,West,274,0.0,0.0,84,0.00,,,0.00,weatherlink.com 1.10,2013-10-23 06:51:00,
2013-10-23 02:06:00,36.5,32.0,30.08,West,274,0.0,0.0,84,0.00,,,0.00,weatherlink.com 1.10,2013-10-23 07:06:00,
2013-10-23 02:21:00,36.4,32.0,30.09,WNW,293,0.0,0.0,84,0.00,,,0.00,weatherlink.com 1.10,2013-10-23 07:21:00,
2013-10-23 02:36:00,36.1,32.0,30.09,WNW,288,0.0,0.0,84,0.00,,,0.00,weatherlink.com 1.10,2013-10-23 07:36:00,
2013-10-23 02:51:00,35.3,32.0,30.09,WNW,288,0.0,0.0,86,0.00,,,0.00,weatherlink.com 1.10,2013-10-23 07:51:00,
2013-10-23 03:06:00,35.0,32.0,30.09,WNW,288,0.0,0.0,89,0.00,,,0.00,weatherlink.com 1.10,2013-10-23 08:06:00,
2013-10-23 03:21:00,34.6,32.0,30.08,WNW,288,0.0,0.0,89,0.00,,,0.00,weatherlink.com 1.10,2013-10-23 08:21:00,
2013-10-23 03:36:00,34.4,32.0,30.08,WNW,288,0.0,0.0,90,0.00,,,0.00,weatherlink.com 1.10,2013-10-23 08:36:00,
2013-10-23 03:51:00,33.9,31.0,30.09,WNW,288,0.0,0.0,90,0.00,,,0.00,weatherlink.com 1.10,2013-10-23 08:51:00,
2013-10-23 04:06:00,34.2,32.0,30.10,WNW,288,0.0,0.0,91,0.00,,,0.00,weatherlink.com 1.10,2013-10-23 09:06:00,
2013-10-23 04:21:00,34.0,32.0,30.10,WNW,288,0.0,0.0,91,0.00,,,0.00,weatherlink.com 1.10,2013-10-23 09:21:00,
2013-10-23 04:36:00,33.5,31.0,30.09,WNW,288,0.0,0.0,91,0.00,,,0.00,weatherlink.com 1.10,2013-10-23 09:36:00,
2013-10-23 04:51:00,33.5,32.0,30.09,WNW,288,0.0,0.0,92,0.00,,,0.00,weatherlink.com 1.10,2013-10-23 09:51:00,
2013-10-23 05:06:00,33.7,32.0,30.09,WNW,288,0.0,0.0,93,0.00,,,0.00,weatherlink.com 1.10,2013-10-23 10:06:00,
2013-10-23 05:21:00,34.3,32.0,30.09,WNW,288,0.0,0.0,92,0.00,,,0.00,weatherlink.com 1.10,2013-10-23 10:21:00,
2013-10-23 05:36:00,34.8,33.0,30.10,WNW,288,0.0,0.0,92,0.00,,,0.00,weatherlink.com 1.10,2013-10-23 10:36:00,
2013-10-23 06:32:00,34.8,32.0,30.11,WNW,290,0.0,0.0,90,0.00,,,0.00,weatherlink.com 1.10,2013-10-23 11:32:00,
2013-10-23 06:37:00,34.7,32.0,30.12,WNW,290,0.0,0.0,91,0.00,,,0.00,weatherlink.com 1.10,2013-10-23 11:37:00,
2013-10-23 06:51:00,35.0,32.0,30.12,WNW,290,0.0,0.0,90,0.00,,,0.00,weatherlink.com 1.10,2013-10-23 11:51:00,
2013-10-23 07:06:00,35.1,33.0,30.12,WNW,288,0.0,1.0,90,0.00,,,0.00,weatherlink.com 1.10,2013-10-23 12:06:00,
2013-10-23 07:21:00,35.1,32.0,30.12,WNW,288,0.0,0.0,89,0.00,,,0.00,weatherlink.com 1.10,2013-10-23 12:21:00,
2013-10-23 07:36:00,35.3,32.0,30.12,WNW,288,0.0,0.0,89,0.00,,,0.00,weatherlink.com 1.10,2013-10-23 12:36:00,
2013-10-23 07:51:00,35.3,32.0,30.13,WNW,288,0.0,0.0,89,0.00,,,0.00,weatherlink.com 1.10,2013-10-23 12:51:00,
2013-10-23 08:07:00,35.4,33.0,30.13,WNW,288,0.0,0.0,89,0.00,,,0.00,weatherlink.com 1.10,2013-10-23 13:07:00,
2013-10-23 08:22:00,35.5,32.0,30.14,WNW,288,0.0,0.0,88,0.00,,,0.00,weatherlink.com 1.10,2013-10-23 13:22:00,
2013-10-23 08:37:00,35.5,32.0,30.14,WNW,288,0.0,0.0,88,0.00,,,0.00,weatherlink.com 1.10,2013-10-23 13:37:00,
2013-10-23 08:52:00,35.9,33.0,30.14,WNW,288,0.0,1.0,88,0.00,,,0.00,weatherlink.com 1.10,2013-10-23 13:52:00,
2013-10-23 09:08:00,36.8,33.0,30.15,WNW,290,0.0,0.0,86,0.00,,,0.00,weatherlink.com 1.10,2013-10-23 14:08:00,
2013-10-23 09:22:00,37.8,33.0,30.14,WNW,283,0.0,0.0,84,0.00,,,0.00,weatherlink.com 1.10,2013-10-23 14:22:00,
2013-10-23 09:37:00,38.9,33.0,30.15,WNW,297,0.0,1.0,79,0.00,,,0.00,weatherlink.com 1.10,2013-10-23 14:37:00,
2013-10-23 09:52:00,39.8,32.0,30.15,WSW,239,0.0,1.0,75,0.00,,,0.00,weatherlink.com 1.10,2013-10-23 14:52:00,
2013-10-23 10:07:00,40.9,32.0,30.15,NW,316,1.0,1.0,71,0.00,,,0.00,weatherlink.com 1.10,2013-10-23 15:07:00,
2013-10-23 10:22:00,42.7,32.0,30.15,NNW,332,0.0,1.0,67,0.00,,,0.00,weatherlink.com 1.10,2013-10-23 15:22:00,
2013-10-23 10:37:00,44.4,32.0,30.14,WSW,239,0.0,1.0,63,0.00,,,0.00,weatherlink.com 1.10,2013-10-23 15:37:00,
2013-10-23 10:52:00,46.5,33.0,30.14,NNE,16,0.0,1.0,59,0.00,,,0.00,weatherlink.com 1.10,2013-10-23 15:52:00,
2013-10-23 11:07:00,46.0,32.0,30.14,WSW,239,0.0,1.0,59,0.00,,,0.00,weatherlink.com 1.10,2013-10-23 16:07:00,
2013-10-23 11:22:00,46.5,34.0,30.13,WSW,240,0.0,1.0,61,0.00,,,0.00,weatherlink.com 1.10,2013-10-23 16:22:00,
2013-10-23 11:37:00,47.1,32.0,30.14,SW,233,2.0,4.0,56,0.00,,,0.00,weatherlink.com 1.10,2013-10-23 16:37:00,
2013-10-23 11:52:00,47.5,32.0,30.14,SW,235,0.0,4.0,56,0.00,,,0.00,weatherlink.com 1.10,2013-10-23 16:52:00,
2013-10-23 12:07:00,47.7,32.0,30.13,WSW,248,0.0,6.0,54,0.00,,,0.00,weatherlink.com 1.10,2013-10-23 17:07:00,
2013-10-23 12:22:00,49.0,32.0,30.12,SW,225,0.0,3.0,53,0.00,,,0.00,weatherlink.com 1.10,2013-10-23 17:22:00,
2013-10-23 12:37:00,49.2,32.0,30.12,SW,232,0.0,2.0,51,0.00,,,0.00,weatherlink.com 1.10,2013-10-23 17:37:00,
2013-10-23 12:52:00,49.0,33.0,30.10,WNW,301,0.0,1.0,55,0.00,,,0.00,weatherlink.com 1.10,2013-10-23 17:52:00,
2013-10-23 13:07:00,48.8,33.0,30.10,SW,225,0.0,4.0,55,0.00,,,0.00,weatherlink.com 1.10,2013-10-23 18:07:00,
2013-10-23 13:22:00,49.2,33.0,30.09,SW,226,0.0,1.0,55,0.00,,,0.00,weatherlink.com 1.10,2013-10-23 18:22:00,
2013-10-23 13:37:00,50.0,34.0,30.08,SW,229,0.0,2.0,54,0.00,,,0.00,weatherlink.com 1.10,2013-10-23 18:37:00,
2013-10-23 13:52:00,49.0,33.0,30.06,SSW,193,0.0,3.0,55,0.00,,,0.00,weatherlink.com 1.10,2013-10-23 18:52:00,
2013-10-23 14:07:00,48.7,33.0,30.06,SW,224,0.0,2.0,56,0.00,,,0.00,weatherlink.com 1.10,2013-10-23 19:07:00,
2013-10-23 14:22:00,49.0,33.0,30.05,SW,219,0.0,3.0,55,0.00,,,0.00,weatherlink.com 1.10,2013-10-23 19:22:00,
2013-10-23 14:37:00,49.6,33.0,30.04,SW,226,0.0,2.0,53,0.00,,,0.00,weatherlink.com 1.10,2013-10-23 19:37:00,
2013-10-23 14:53:00,49.8,34.0,30.04,SW,217,0.0,2.0,54,0.00,,,0.00,weatherlink.com 1.10,2013-10-23 19:53:00,
2013-10-23 15:07:00,49.2,32.0,30.03,South,190,0.0,2.0,52,0.00,,,0.00,weatherlink.com 1.10,2013-10-23 20:07:00,
2013-10-23 15:22:00,49.2,33.0,30.03,SSW,198,0.0,3.0,54,0.00,,,0.00,weatherlink.com 1.10,2013-10-23 20:22:00,
2013-10-23 15:37:00,48.9,33.0,30.03,SSW,212,3.0,5.0,55,0.00,,,0.00,weatherlink.com 1.10,2013-10-23 20:37:00,
2013-10-23 15:52:00,48.8,33.0,30.02,SSW,196,0.0,4.0,55,0.00,,,0.00,weatherlink.com 1.10,2013-10-23 20:52:00,
2013-10-23 16:07:00,49.4,34.0,30.03,SW,222,0.0,1.0,56,0.00,,,0.00,weatherlink.com 1.10,2013-10-23 21:07:00,
2013-10-23 16:22:00,50.0,34.0,30.03,SW,221,0.0,2.0,54,0.00,,,0.00,weatherlink.com 1.10,2013-10-23 21:22:00,
2013-10-23 16:37:00,50.0,35.0,30.03,SW,221,0.0,1.0,56,0.00,,,0.00,weatherlink.com 1.10,2013-10-23 21:37:00,
2013-10-23 16:52:00,49.9,35.0,30.04,SW,221,0.0,1.0,57,0.00,,,0.00,weatherlink.com 1.10,2013-10-23 21:52:00,
2013-10-23 17:08:00,50.0,35.0,30.05,SW,221,0.0,0.0,57,0.00,,,0.00,weatherlink.com 1.10,2013-10-23 22:08:00,
2013-10-23 17:23:00,49.7,36.0,30.05,SW,224,0.0,0.0,59,0.00,,,0.00,weatherlink.com 1.10,2013-10-23 22:23:00,
2013-10-23 17:38:00,49.3,36.0,30.06,SW,224,0.0,0.0,60,0.00,,,0.00,weatherlink.com 1.10,2013-10-23 22:38:00,
2013-10-23 17:53:00,48.9,37.0,30.07,NW,304,0.0,1.0,63,0.00,,,0.00,weatherlink.com 1.10,2013-10-23 22:53:00,
2013-10-23 18:08:00,48.4,36.0,30.07,WNW,300,0.0,2.0,63,0.00,,,0.00,weatherlink.com 1.10,2013-10-23 23:08:00,
2013-10-23 18:23:00,47.5,36.0,30.07,WNW,300,0.0,0.0,65,0.00,,,0.00,weatherlink.com 1.10,2013-10-23 23:23:00,
2013-10-23 18:38:00,47.2,35.0,30.07,WSW,238,0.0,0.0,63,0.00,,,0.00,weatherlink.com 1.10,2013-10-23 23:38:00,
2013-10-23 18:53:00,47.1,36.0,30.07,WSW,238,0.0,0.0,66,0.00,,,0.00,weatherlink.com 1.10,2013-10-23 23:53:00,
2013-10-23 19:08:00,46.8,36.0,30.06,WSW,238,0.0,0.0,67,0.00,,,0.00,weatherlink.com 1.10,2013-10-24 00:08:00,
2013-10-23 19:23:00,46.5,36.0,30.06,WSW,238,0.0,0.0,68,0.00,,,0.00,weatherlink.com 1.10,2013-10-24 00:23:00,
2013-10-23 19:38:00,46.0,36.0,30.07,WSW,238,0.0,0.0,69,0.00,,,0.00,weatherlink.com 1.10,2013-10-24 00:38:00,
2013-10-23 19:53:00,45.6,36.0,30.07,WSW,238,0.0,0.0,69,0.00,,,0.00,weatherlink.com 1.10,2013-10-24 00:53:00,
2013-10-23 20:08:00,45.1,36.0,30.07,WSW,238,0.0,0.0,70,0.00,,,0.00,weatherlink.com 1.10,2013-10-24 01:08:00,
2013-10-23 20:23:00,44.5,36.0,30.07,WSW,238,0.0,0.0,72,0.00,,,0.00,weatherlink.com 1.10,2013-10-24 01:23:00,
2013-10-23 20:38:00,44.6,37.0,30.07,WSW,238,0.0,0.0,74,0.00,,,0.00,weatherlink.com 1.10,2013-10-24 01:38:00,
2013-10-23 20:53:00,44.7,37.0,30.08,WSW,238,0.0,0.0,73,0.00,,,0.00,weatherlink.com 1.10,2013-10-24 01:53:00,
2013-10-23 21:23:00,44.9,37.0,30.09,WSW,238,0.0,0.0,73,0.00,,,0.00,weatherlink.com 1.10,2013-10-24 02:23:00,
2013-10-23 21:38:00,45.1,37.0,30.10,WSW,238,0.0,0.0,74,0.00,,,0.00,weatherlink.com 1.10,2013-10-24 02:38:00,
2013-10-23 21:53:00,45.0,37.0,30.10,WSW,238,0.0,0.0,74,0.00,,,0.00,weatherlink.com 1.10,2013-10-24 02:53:00,
2013-10-23 22:08:00,44.9,38.0,30.11,WSW,238,0.0,0.0,76,0.00,,,0.00,weatherlink.com 1.10,2013-10-24 03:08:00,
2013-10-23 22:23:00,44.7,37.0,30.11,WSW,238,0.0,0.0,75,0.00,,,0.00,weatherlink.com 1.10,2013-10-24 03:23:00,
2013-10-23 22:38:00,44.0,37.0,30.12,WSW,238,0.0,0.0,76,0.00,,,0.00,weatherlink.com 1.10,2013-10-24 03:38:00,
2013-10-23 22:53:00,42.9,37.0,30.13,WSW,238,0.0,0.0,79,0.00,,,0.00,weatherlink.com 1.10,2013-10-24 03:53:00,
2013-10-23 23:08:00,41.8,37.0,30.13,WSW,238,0.0,0.0,82,0.00,,,0.00,weatherlink.com 1.10,2013-10-24 04:08:00,
2013-10-23 23:23:00,40.7,36.0,30.13,WSW,238,0.0,0.0,83,0.00,,,0.00,weatherlink.com 1.10,2013-10-24 04:23:00,
2013-10-23 23:38:00,39.8,36.0,30.13,WSW,238,0.0,0.0,86,0.00,,,0.00,weatherlink.com 1.10,2013-10-24 04:38:00,
2013-10-23 23:53:00,39.6,36.0,30.14,WSW,238,0.0,0.0,87,0.00,,,0.00,weatherlink.com 1.10,2013-10-24 04:53:00,